88°F Temp
72°F Dewpoint
% Humidity
Temperature
10 MPH
16 KM/H
9 KTS
250°
West South
West

Wind Speed
Clear
Conditions
Pressure 1016.62 (hPa) - 30.02 (in)
Visibility 10.0 (mi) - 16.1 (km)

Current Conditions
KEQY
Location 15.55km (9.66mi)
Metar :KEQY 181453Z AUTO 25009KT 10SM CLR 31/22 A3002 RMK AO2 SLP160 T03060217 50001
Thu 18th July 10:53 am

Airport
  Metar Aviation API Data Provided by https://www.checkwx.com/ CSS/SVG/PHP scripts by weather34.com © 2015-2019